Terminal Aerodrome Forecast
Issued by NWS

Home | Current Version | Previous Version | Text Only | Print | Product List | Glossary On
Versions: 1 2 3 4 5 6 7 8 9 10 11 12 13 14 15
675
FTUS43 KICT 142344
TAFHUT
TAF
KHUT 142344Z 1500/1524 33009KT P6SM OVC045
     FM150600 33008KT P6SM SCT200
     FM151300 28006KT P6SM SKC
     FM151700 24011KT P6SM SKC=

USA.gov is the U.S. government's official web portal to all federal, state and local government web resources and services.